Time;durP1;ratioP1;P1;durP2;ratioP2;P2;SDS_P1;SDS_P2;PMS_P1;PMS_P2;Temp;Humidity;BMP_temperature;BMP_pressure;BME280_temperature;BME280_humidity;BME280_pressure;Samples;Min_cycle;Max_cycle;Signal;HPM_P1;HPM_P2
2022/03/28 00:00:12;;;;;;;11.43;7.03;;;6.00;99.90;;;;;;4995371;28;20468;-94
2022/03/28 00:02:43;;;;;;;15.17;7.30;;;6.00;99.90;;;;;;4992465;28;20453;-94
2022/03/28 00:05:10;;;;;;;10.00;6.40;;;6.00;99.90;;;;;;4997570;28;20474;-94
2022/03/28 00:07:37;;;;;;;9.50;5.93;;;;;;;;;;5033705;28;20459;-93
2022/03/28 00:10:06;;;;;;;11.37;6.63;;;6.00;99.90;;;;;;5036848;28;20809;-93
2022/03/28 00:12:33;;;;;;;13.23;6.90;;;;;;;;;;5033688;28;20428;-94
2022/03/28 00:15:01;;;;;;;13.07;7.30;;;;;;;;;;5033113;28;20436;-91
2022/03/28 00:17:28;;;;;;;11.90;6.80;;;;;;;;;;5036995;28;20998;-95
2022/03/28 00:19:57;;;;;;;12.53;7.00;;;;;;;;;;5036364;28;20432;-94
2022/03/28 00:22:24;;;;;;;14.60;7.13;;;;;;;;;;5033133;28;20456;-95
2022/03/28 00:24:51;;;;;;;14.97;6.60;;;;;;;;;;5036846;28;20443;-94
2022/03/28 00:27:19;;;;;;;14.87;6.53;;;;;;;;;;5033467;28;20466;-96
2022/03/28 00:29:46;;;;;;;11.73;6.70;;;;;;;;;;5027377;28;20842;-95
2022/03/28 00:32:14;;;;;;;11.03;6.30;;;;;;;;;;5037651;28;20811;-95
2022/03/28 00:34:41;;;;;;;12.90;6.43;;;;;;;;;;5034788;28;20478;-96
2022/03/28 00:37:10;;;;;;;11.60;6.20;;;5.60;99.90;;;;;;5033053;28;20424;-93
2022/03/28 00:39:37;;;;;;;12.07;6.57;;;;;;;;;;5036377;28;20969;-92
2022/03/28 00:42:05;;;;;;;10.23;6.30;;;;;;;;;;5024091;28;20616;-92
2022/03/28 00:44:32;;;;;;;10.53;6.30;;;;;;;;;;5015865;28;20835;-94
2022/03/28 00:46:59;;;;;;;12.00;6.27;;;;;;;;;;5013108;28;20483;-93
2022/03/28 00:49:26;;;;;;;12.23;6.77;;;;;;;;;;5016305;28;20437;-92
2022/03/28 00:51:54;;;;;;;9.10;6.13;;;;;;;;;;5016164;28;20459;-94
2022/03/28 00:54:22;;;;;;;11.43;6.00;;;;;;;;;;5013053;28;20437;-94
2022/03/28 00:56:50;;;;;;;13.27;6.47;;;;;;;;;;5016332;28;20464;-91
2022/03/28 00:59:19;;;;;;;18.40;7.30;;;4.80;99.90;;;;;;5012317;28;21010;-93
2022/03/28 01:01:47;;;;;;;12.17;7.53;;;;;;;;;;5011502;28;20456;-94
2022/03/28 01:04:15;;;;;;;11.13;7.10;;;;;;;;;;5017965;28;20468;-94
2022/03/28 01:06:42;;;;;;;12.17;6.83;;;;;;;;;;5015050;28;20479;-94
2022/03/28 01:09:09;;;;;;;11.40;6.13;;;;;;;;;;5016398;28;20428;-94
2022/03/28 01:11:39;;;;;;;11.97;6.93;;;5.10;99.90;;;;;;5014972;28;20475;-93
2022/03/28 01:14:06;;;;;;;11.87;6.87;;;;;;;;;;5015061;28;20440;-94
2022/03/28 01:18:05;;;;;;;10.70;6.33;;;5.10;99.90;;;;;;5016193;28;20861;-95
2022/03/28 01:19:23;;;;;;;10.30;6.03;;;;;;;;;;5016059;28;20987;-94
2022/03/28 01:21:51;;;;;;;11.63;6.97;;;;;;;;;;5016713;28;20445;-94
2022/03/28 01:24:19;;;;;;;13.17;6.60;;;;;;;;;;5012325;28;20464;-93
2022/03/28 01:26:47;;;;;;;10.70;6.20;;;5.00;99.90;;;;;;5013429;28;20814;-91
2022/03/28 01:29:14;;;;;;;10.93;6.00;;;;;;;;;;5016071;28;20444;-94
2022/03/28 01:31:41;;;;;;;9.77;6.00;;;;;;;;;;5013505;28;20455;-93
2022/03/28 01:34:17;;;;;;;11.43;6.43;;;5.00;99.90;;;;;;5013240;28;20449;-93
2022/03/28 01:36:45;;;;;;;11.33;6.17;;;;;;;;;;5016406;28;20920;-94
2022/03/28 01:39:15;;;;;;;9.97;6.57;;;5.10;99.90;;;;;;5014524;28;20574;-93
2022/03/28 01:41:42;;;;;;;10.40;6.50;;;;;;;;;;5014401;28;20626;-93
2022/03/28 01:44:09;;;;;;;11.17;6.57;;;;;;;;;;5011524;28;20487;-95
2022/03/28 01:46:40;;;;;;;12.10;6.70;;;;;;;;;;5012099;28;20491;-93
2022/03/28 01:49:07;;;;;;;13.17;7.23;;;;;;;;;;5009600;28;20483;-95
2022/03/28 01:51:35;;;;;;;11.97;6.80;;;;;;;;;;5014606;28;20436;-93
2022/03/28 01:54:02;;;;;;;10.83;6.10;;;;;;;;;;5014481;28;20440;-93
2022/03/28 01:56:30;;;;;;;14.80;7.27;;;;;;;;;;5009431;28;20463;-91
2022/03/28 01:58:58;;;;;;;11.70;7.00;;;;;;;;;;5010884;28;20487;-91
2022/03/28 02:01:25;;;;;;;13.70;7.57;;;;;;;;;;5015963;28;20445;-93
2022/03/28 02:03:52;;;;;;;11.03;6.40;;;;;;;;;;5013247;28;20555;-92
2022/03/28 02:06:19;;;;;;;11.97;7.60;;;;;;;;;;5012761;28;20444;-94
2022/03/28 02:08:46;;;;;;;11.10;7.30;;;;;;;;;;5014609;28;20460;-91
2022/03/28 02:11:13;;;;;;;15.50;8.20;;;;;;;;;;5016147;28;20436;-93
2022/03/28 02:13:42;;;;;;;14.73;6.77;;;;;;;;;;5012619;28;20456;-93
2022/03/28 02:16:09;;;;;;;12.17;6.70;;;;;;;;;;5013487;28;20440;-93
2022/03/28 02:18:38;;;;;;;9.37;6.47;;;;;;;;;;5012738;28;20488;-94
2022/03/28 02:21:05;;;;;;;8.93;6.30;;;;;;;;;;5015420;28;20465;-95
2022/03/28 02:23:32;;;;;;;9.83;6.53;;;;;;;;;;5019631;28;20436;-94
2022/03/28 02:26:02;;;;;;;11.87;6.37;;;;;;;;;;5016664;28;20439;-95
2022/03/28 02:28:30;;;;;;;16.07;7.93;;;;;;;;;;5018726;28;20440;-93
2022/03/28 02:30:59;;;;;;;14.50;6.90;;;4.50;99.90;;;;;;5016504;28;20439;-93
2022/03/28 02:33:26;;;;;;;11.60;6.83;;;;;;;;;;5016250;28;20436;-94
2022/03/28 02:35:53;;;;;;;10.77;5.83;;;;;;;;;;5019930;28;20432;-95
2022/03/28 02:38:20;;;;;;;8.93;6.43;;;;;;;;;;5020478;28;20487;-95
2022/03/28 02:40:47;;;;;;;11.27;6.63;;;;;;;;;;5020388;28;20442;-93
2022/03/28 02:43:14;;;;;;;14.77;6.23;;;;;;;;;;5031569;28;20491;-90
2022/03/28 02:45:42;;;;;;;10.63;6.67;;;;;;;;;;5038133;28;20450;-94
2022/03/28 02:48:11;;;;;;;13.00;6.50;;;;;;;;;;5035024;28;20489;-91
2022/03/28 02:50:38;;;;;;;14.33;7.67;;;;;;;;;;5039151;28;20440;-94
2022/03/28 02:53:05;;;;;;;9.40;6.77;;;;;;;;;;5036240;28;20432;-94
2022/03/28 02:55:33;;;;;;;9.40;6.13;;;;;;;;;;5039505;28;20463;-93
2022/03/28 02:58:00;;;;;;;8.97;6.50;;;;;;;;;;5039289;28;20456;-94
2022/03/28 03:00:27;;;;;;;13.37;6.63;;;;;;;;;;5038536;28;20851;-92
2022/03/28 03:02:54;;;;;;;12.83;5.93;;;;;;;;;;5038954;28;20456;-93
2022/03/28 03:05:23;;;;;;;11.10;6.80;;;;;;;;;;5038831;28;20443;-96
2022/03/28 03:07:51;;;;;;;10.73;6.23;;;;;;;;;;5035379;28;20436;-94
2022/03/28 03:10:18;;;;;;;12.90;7.57;;;;;;;;;;5035752;28;20471;-93
2022/03/28 03:12:45;;;;;;;11.07;7.60;;;;;;;;;;5035549;28;20462;-92
2022/03/28 03:15:12;;;;;;;16.63;7.50;;;;;;;;;;5038153;28;20428;-90
2022/03/28 03:17:39;;;;;;;10.10;6.47;;;;;;;;;;5039049;28;20486;-96
2022/03/28 03:20:07;;;;;;;11.07;7.20;;;4.30;99.90;;;;;;5036806;28;20498;-94
2022/03/28 03:22:35;;;;;;;12.20;6.80;;;4.30;99.90;;;;;;5038476;28;20452;-93
2022/03/28 03:25:03;;;;;;;10.80;7.00;;;;;;;;;;5038663;28;20478;-94
2022/03/28 03:27:30;;;;;;;13.67;7.20;;;;;;;;;;5027736;28;20428;-91
2022/03/28 03:29:57;;;;;;;18.70;7.87;;;;;;;;;;5032836;28;20455;-95
2022/03/28 03:32:24;;;;;;;13.53;7.00;;;;;;;;;;5038563;28;20447;-93
2022/03/28 03:34:52;;;;;;;19.50;7.07;;;;;;;;;;5034290;28;20447;-95
2022/03/28 03:37:19;;;;;;;16.93;7.40;;;;;;;;;;5035318;28;20455;-92
2022/03/28 03:39:48;;;;;;;13.27;7.80;;;4.10;99.90;;;;;;5038071;28;20538;-93
2022/03/28 03:42:15;;;;;;;10.53;6.80;;;;;;;;;;5038386;28;20486;-91
2022/03/28 03:44:42;;;;;;;14.87;7.10;;;;;;;;;;5034646;28;20451;-93
2022/03/28 03:47:09;;;;;;;12.97;6.90;;;;;;;;;;5037677;28;20463;-94
2022/03/28 03:49:36;;;;;;;10.93;6.83;;;;;;;;;;5028263;28;20466;-93
2022/03/28 03:52:03;;;;;;;13.50;7.37;;;;;;;;;;5037094;28;20956;-91
2022/03/28 03:54:31;;;;;;;11.20;6.40;;;;;;;;;;5037151;28;20439;-94
2022/03/28 03:57:00;;;;;;;13.33;7.10;;;4.00;99.90;;;;;;5029834;28;20443;-91
2022/03/28 03:59:27;;;;;;;12.47;8.03;;;;;;;;;;5028791;28;20929;-94
2022/03/28 04:01:54;;;;;;;10.93;6.53;;;;;;;;;;5037592;28;20447;-94
2022/03/28 04:04:21;;;;;;;13.07;7.73;;;;;;;;;;5034990;28;20448;-93
2022/03/28 04:06:49;;;;;;;12.40;7.53;;;;;;;;;;5036971;28;20470;-92
2022/03/28 04:09:16;;;;;;;11.93;7.33;;;;;;;;;;5036868;28;20466;-93
2022/03/28 04:11:43;;;;;;;13.17;7.50;;;;;;;;;;5036615;28;20467;-93
2022/03/28 04:14:11;;;;;;;14.20;8.30;;;4.00;99.90;;;;;;5036195;28;20459;-91
2022/03/28 04:16:38;;;;;;;11.23;7.67;;;;;;;;;;5030330;28;20455;-92
2022/03/28 04:19:05;;;;;;;9.80;6.93;;;;;;;;;;5034054;28;20491;-92
2022/03/28 04:21:32;;;;;;;15.00;8.17;;;;;;;;;;5036689;28;20439;-93
2022/03/28 04:24:00;;;;;;;16.50;7.10;;;;;;;;;;5033288;28;20454;-95
2022/03/28 04:26:27;;;;;;;11.80;6.50;;;;;;;;;;5036673;28;20440;-92
2022/03/28 04:28:54;;;;;;;11.13;7.70;;;;;;;;;;5036294;28;20463;-94
2022/03/28 04:31:22;;;;;;;22.07;9.17;;;4.00;99.90;;;;;;5033633;28;20427;-93
2022/03/28 04:33:50;;;;;;;13.87;7.20;;;;;;;;;;5036538;28;20919;-93
2022/03/28 04:36:17;;;;;;;15.60;8.40;;;;;;;;;;5033203;28;20428;-92
2022/03/28 04:38:44;;;;;;;10.00;7.47;;;;;;;;;;5037391;28;20471;-94
2022/03/28 04:41:11;;;;;;;13.60;8.80;;;;;;;;;;5037315;28;20435;-95
2022/03/28 04:43:39;;;;;;;16.13;7.40;;;4.10;99.90;;;;;;5036852;28;20466;-92
2022/03/28 04:46:06;;;;;;;15.07;7.87;;;;;;;;;;5024114;28;20969;-95
2022/03/28 04:48:34;;;;;;;16.60;7.67;;;4.10;99.90;;;;;;5036817;28;20451;-94
2022/03/28 04:51:02;;;;;;;15.03;8.03;;;;;;;;;;5033776;28;20809;-92
2022/03/28 04:53:29;;;;;;;14.57;7.40;;;;;;;;;;5036762;28;20812;-94
2022/03/28 04:55:56;;;;;;;11.50;7.23;;;;;;;;;;5036544;28;20439;-93
2022/03/28 04:58:23;;;;;;;17.23;8.67;;;;;;;;;;5032775;28;20452;-94
2022/03/28 05:00:51;;;;;;;12.73;7.40;;;;;;;;;;5036303;28;20494;-92
2022/03/28 05:03:18;;;;;;;19.00;9.30;;;;;;;;;;5033014;28;20979;-92
2022/03/28 05:05:46;;;;;;;16.67;7.93;;;4.00;99.90;;;;;;5029362;28;20452;-92
2022/03/28 05:08:14;;;;;;;12.40;8.70;;;;;;;;;;5036841;28;20443;-91
2022/03/28 05:10:41;;;;;;;13.93;7.07;;;;;;;;;;5033566;28;20455;-94
2022/03/28 05:13:08;;;;;;;17.60;8.50;;;;;;;;;;5036545;28;20586;-94
2022/03/28 05:15:35;;;;;;;14.33;7.57;;;;;;;;;;5035736;28;20443;-91
2022/03/28 05:18:02;;;;;;;16.10;8.97;;;;;;;;;;5036933;28;20440;-93
2022/03/28 05:20:29;;;;;;;14.93;8.77;;;;;;;;;;5036169;28;20487;-92
2022/03/28 05:22:58;;;;;;;21.43;8.97;;;3.80;99.90;;;;;;5035925;28;20448;-93
2022/03/28 05:25:25;;;;;;;29.00;8.57;;;;;;;;;;5032250;28;20947;-92
2022/03/28 05:27:52;;;;;;;21.93;8.97;;;;;;;;;;5033287;28;20428;-93
2022/03/28 05:30:19;;;;;;;28.90;10.43;;;;;;;;;;5032273;28;20514;-91
2022/03/28 05:32:47;;;;;;;22.07;10.80;;;;;;;;;;5032669;28;20492;-93
2022/03/28 05:35:14;;;;;;;28.90;10.37;;;;;;;;;;5036124;28;20428;-94
2022/03/28 05:37:41;;;;;;;25.73;10.20;;;;;;;;;;5024026;28;20447;-94
2022/03/28 05:40:11;;;;;;;32.13;11.57;;;4.20;99.90;;;;;;5029620;28;20538;-94
2022/03/28 05:42:38;;;;;;;29.50;10.93;;;;;;;;;;5031788;28;20479;-92
2022/03/28 05:45:06;;;;;;;36.83;9.50;;;6.10;99.90;;;;;;5034408;28;20446;-94
2022/03/28 05:47:33;;;;;;;21.90;9.73;;;;;;;;;;4997885;28;20798;-94
2022/03/28 05:50:00;;;;;;;28.83;11.00;;;;;;;;;;5031593;28;20456;-94
2022/03/28 05:52:27;;;;;;;20.93;10.27;;;;;;;;;;5023794;28;20505;-94
2022/03/28 05:54:54;;;;;;;34.57;10.67;;;;;;;;;;5035257;28;20435;-94
2022/03/28 05:57:22;;;;;;;23.80;9.33;;;5.50;99.90;;;;;;5034718;28;20438;-92
2022/03/28 05:59:51;;;;;;;26.20;10.83;;;;;;;;;;5037207;28;20490;-90
2022/03/28 06:02:18;;;;;;;25.27;11.40;;;;;;;;;;5104379;22;20502;-90
2022/03/28 06:04:45;;;;;;;34.03;11.70;;;;;;;;;;5120861;28;20447;-90
2022/03/28 06:07:15;;;;;;;23.73;11.13;;;6.60;99.90;;;;;;5161061;22;20483;-90
2022/03/28 06:09:42;;;;;;;24.10;11.07;;;;;;;;;;5111080;28;20411;-88
2022/03/28 06:12:16;;;;;;;22.10;10.57;;;7.10;99.90;;;;;;5131449;22;20485;-89
2022/03/28 06:14:48;;;;;;;25.67;10.50;;;;;;;;;;5130459;22;20479;-89
2022/03/28 06:17:23;;;;;;;21.80;10.03;;;7.60;99.70;;;;;;5128323;28;20437;-91
2022/03/28 06:19:59;;;;;;;21.53;11.00;;;7.80;99.10;;;;;;5076079;28;20486;-94
2022/03/28 06:22:35;;;;;;;31.07;12.00;;;8.00;98.50;;;;;;5133222;28;20474;-92
2022/03/28 06:25:05;;;;;;;18.10;9.73;;;;;;;;;;5092630;22;20456;-93
2022/03/28 06:27:41;;;;;;;30.23;11.60;;;8.60;96.40;;;;;;5133731;22;20481;-91
2022/03/28 06:30:16;;;;;;;20.23;11.43;;;8.70;99.90;;;;;;5169483;27;20949;-93
2022/03/28 06:32:43;;;;;;;30.70;10.80;;;;;;;;;;5139467;22;20486;-93
2022/03/28 06:35:11;;;;;;;22.70;10.57;;;;;;;;;;5129047;28;20447;-92
2022/03/28 06:37:38;;;;;;;30.07;9.90;;;;;;;;;;5125388;28;20483;-93
2022/03/28 06:40:08;;;;;;;24.80;12.00;;;9.40;94.70;;;;;;5124691;28;20479;-93
2022/03/28 06:42:36;;;;;;;17.27;10.77;;;;;;;;;;5120899;28;20452;-94
2022/03/28 06:45:03;;;;;;;28.67;12.30;;;;;;;;;;5122348;28;20443;-93
2022/03/28 06:47:39;;;;;;;18.77;10.27;;;10.10;92.30;;;;;;5124037;28;20428;-94
2022/03/28 06:50:09;;;;;;;31.13;11.03;;;10.30;92.00;;;;;;5118694;28;20815;-95
2022/03/28 06:52:36;;;;;;;20.73;10.80;;;10.60;91.20;;;;;;5115761;28;20446;-96
2022/03/28 06:55:04;;;;;;;23.40;11.63;;;10.60;94.60;;;;;;5111892;28;20443;-93
2022/03/28 06:57:31;;;;;;;21.57;11.17;;;;;;;;;;5110560;28;20462;-90
2022/03/28 06:59:59;;;;;;;26.00;11.43;;;;;;;;;;5100274;28;20529;-96
2022/03/28 07:02:26;;;;;;;24.97;11.70;;;;;;;;;;5096392;28;20841;-94
2022/03/28 07:04:54;;;;;;;28.90;12.47;;;11.30;90.00;;;;;;5096109;28;20963;-95
2022/03/28 07:07:21;;;;;;;29.13;12.73;;;;;;;;;;5098692;28;20451;-92
2022/03/28 07:09:51;;;;;;;26.10;13.10;;;11.50;99.90;;;;;;5100733;28;20432;-95
2022/03/28 07:12:19;;;;;;;21.63;11.87;;;;;;;;;;5101806;28;20433;-94
2022/03/28 07:14:46;;;;;;;29.00;12.23;;;;;;;;;;5100300;28;20436;-95
2022/03/28 07:17:13;;;;;;;22.80;12.57;;;;;;;;;;5093729;28;20452;-95
2022/03/28 07:19:40;;;;;;;25.40;11.50;;;;;;;;;;5098723;28;20484;-94
2022/03/28 07:22:08;;;;;;;38.97;13.40;;;13.30;82.50;;;;;;5099735;28;20797;-94
2022/03/28 07:24:36;;;;;;;22.40;11.60;;;;;;;;;;5094095;28;20474;-94
2022/03/28 07:27:03;;;;;;;20.80;12.27;;;13.50;99.90;;;;;;5093930;28;20432;-93
2022/03/28 07:29:30;;;;;;;23.60;13.30;;;;;;;;;;5095909;28;20453;-94
2022/03/28 07:31:57;;;;;;;27.90;12.43;;;;;;;;;;5095597;28;20944;-94
2022/03/28 07:34:34;;;;;;;24.00;12.27;;;;;;;;;;5114392;28;20566;-94
2022/03/28 07:37:05;;;;;;;26.97;13.77;;;14.30;79.90;;;;;;5117217;28;20460;-96
2022/03/28 07:39:34;;;;;;;28.60;13.23;;;14.30;80.10;;;;;;5118241;28;20440;-96
2022/03/28 07:42:02;;;;;;;24.00;12.80;;;;;;;;;;5116037;28;20514;-95
2022/03/28 07:44:29;;;;;;;26.23;12.63;;;;;;;;;;5114832;28;20444;-95
2022/03/28 07:46:56;;;;;;;23.10;11.50;;;;;;;;;;5113685;28;20440;-96
2022/03/28 07:49:25;;;;;;;19.40;12.77;;;;;;;;;;5115331;28;20428;-95
2022/03/28 07:51:52;;;;;;;24.97;13.40;;;;;;;;;;5118535;28;20454;-93
2022/03/28 07:54:20;;;;;;;34.40;13.43;;;16.10;72.50;;;;;;5115343;28;20439;-96
2022/03/28 07:56:48;;;;;;;33.70;13.27;;;15.40;74.60;;;;;;5121614;28;20507;-95
2022/03/28 07:59:16;;;;;;;36.17;14.00;;;;;;;;;;5117543;28;20448;-96
2022/03/28 08:01:43;;;;;;;20.93;12.17;;;;;;;;;;5137175;28;20499;-94
2022/03/28 08:04:10;;;;;;;29.63;13.23;;;;;;;;;;5129245;28;20934;-95
2022/03/28 08:06:37;;;;;;;26.30;14.33;;;;;;;;;;5119479;28;20459;-89
2022/03/28 08:09:05;;;;;;;20.60;13.00;;;;;;;;;;5118519;28;20448;-96
2022/03/28 08:11:32;;;;;;;26.33;12.60;;;;;;;;;;5118588;28;20810;-93
2022/03/28 08:14:01;;;;;;;19.67;13.80;;;17.60;69.50;;;;;;5120243;28;20452;-92
2022/03/28 08:16:29;;;;;;;20.17;13.43;;;;;;;;;;5117889;28;20975;-95
2022/03/28 08:18:56;;;;;;;18.13;13.10;;;;;;;;;;5115925;28;20440;-95
2022/03/28 08:21:23;;;;;;;20.27;13.57;;;;;;;;;;5120337;28;20528;-95
2022/03/28 08:23:50;;;;;;;33.20;14.13;;;;;;;;;;5118689;28;20455;-93
2022/03/28 08:26:17;;;;;;;26.23;13.70;;;;;;;;;;5122235;28;20448;-90
2022/03/28 08:28:48;;;;;;;19.30;13.33;;;;;;;;;;5125883;22;20474;-91
2022/03/28 08:31:17;;;;;;;20.60;14.17;;;18.40;65.70;;;;;;5088354;28;20460;-95
2022/03/28 08:33:44;;;;;;;26.93;13.93;;;;;;;;;;5081500;28;20441;-87
2022/03/28 08:36:11;;;;;;;30.33;13.20;;;;;;;;;;5089149;28;20445;-87
2022/03/28 08:38:39;;;;;;;23.13;14.60;;;;;;;;;;5090067;28;20955;-88
2022/03/28 08:41:12;;;;;;;28.00;15.40;;;;;;;;;;5091924;28;20485;-89
2022/03/28 08:43:40;;;;;;;26.17;13.63;;;;;;;;;;5091003;28;20445;-94
2022/03/28 08:46:08;;;;;;;20.43;15.00;;;;;;;;;;5080454;28;20783;-90
2022/03/28 08:48:39;;;;;;;92.10;71.63;;;;;;;;;;5075814;28;20843;-93
2022/03/28 08:51:06;;;;;;;18.07;13.83;;;;;;;;;;5075920;28;20507;-92
2022/03/28 08:53:34;;;;;;;23.60;13.80;;;;;;;;;;5076465;28;20987;-91
2022/03/28 08:56:01;;;;;;;22.93;14.13;;;;;;;;;;5055762;28;20448;-93
2022/03/28 08:58:29;;;;;;;23.40;15.53;;;;;;;;;;5055602;28;20458;-93
2022/03/28 09:00:56;;;;;;;29.03;14.77;;;;;;;;;;5065923;28;21015;-94
2022/03/28 09:03:37;;;;;;;19.53;14.03;;;21.40;63.90;;;;;;5073934;28;20488;-93
2022/03/28 09:06:29;;;;;;;22.93;14.03;;;22.10;60.60;;;;;;5075310;28;20437;-93
2022/03/28 09:09:10;;;;;;;27.30;14.80;;;22.10;59.00;;;;;;5072898;28;20442;-94
2022/03/28 09:11:37;;;;;;;25.30;14.30;;;;;;;;;;5067390;28;20457;-92
2022/03/28 09:14:05;;;;;;;30.77;15.10;;;;;;;;;;5074788;28;20448;-92
2022/03/28 09:16:34;;;;;;;18.73;14.50;;;;;;;;;;5071142;28;20463;-93
2022/03/28 09:19:09;;;;;;;17.47;14.33;;;23.70;52.40;;;;;;5077012;28;20544;-94
2022/03/28 09:21:36;;;;;;;22.43;15.57;;;;;;;;;;5075404;28;20861;-93
2022/03/28 09:24:05;;;;;;;21.20;14.73;;;23.00;51.60;;;;;;5073058;28;20479;-93
2022/03/28 09:26:32;;;;;;;19.50;15.03;;;;;;;;;;5068405;28;20488;-95
2022/03/28 09:29:01;;;;;;;25.63;14.50;;;22.70;50.90;;;;;;5074824;28;20481;-94
2022/03/28 09:31:31;;;;;;;23.90;14.00;;;23.70;52.30;;;;;;5074192;28;20446;-91
2022/03/28 09:34:00;;;;;;;21.90;15.27;;;23.80;50.60;;;;;;5068891;28;20460;-94
2022/03/28 09:36:41;;;;;;;26.57;15.67;;;23.90;48.30;;;;;;5066634;28;20507;-93
2022/03/28 09:39:10;;;;;;;23.60;14.60;;;24.00;49.70;;;;;;5075123;28;20442;-93
2022/03/28 09:41:38;;;;;;;21.40;16.33;;;;;;;;;;5069616;28;20496;-93
2022/03/28 09:44:07;;;;;;;19.63;14.23;;;23.70;54.60;;;;;;5070929;28;20442;-93
2022/03/28 09:46:37;;;;;;;19.40;13.70;;;23.90;54.30;;;;;;5075013;28;20481;-92
2022/03/28 09:49:04;;;;;;;24.33;14.67;;;;;;;;;;5075006;28;20446;-92
2022/03/28 09:51:34;;;;;;;17.50;15.03;;;24.50;48.90;;;;;;5071402;28;20434;-95
2022/03/28 09:54:02;;;;;;;19.47;14.50;;;22.70;49.70;;;;;;5074976;28;20484;-93
2022/03/28 09:56:29;;;;;;;21.63;15.37;;;;;;;;;;5040129;28;20445;-92
2022/03/28 09:58:59;;;;;;;19.67;14.77;;;23.20;50.00;;;;;;5074388;28;20500;-94
2022/03/28 10:01:30;;;;;;;18.10;14.33;;;23.10;49.50;;;;;;5074222;28;20999;-94
2022/03/28 10:04:01;;;;;;;20.17;14.90;;;24.10;50.50;;;;;;5071750;28;20461;-93
2022/03/28 10:06:28;;;;;;;18.20;13.67;;;;;;;;;;5067167;28;20454;-93
2022/03/28 10:08:56;;;;;;;21.00;14.27;;;;;;;;;;5069268;28;20514;-93
2022/03/28 10:11:26;;;;;;;21.87;13.97;;;25.10;46.80;;;;;;5071767;28;20480;-93
2022/03/28 10:13:53;;;;;;;19.43;15.57;;;25.30;46.10;;;;;;5073116;28;20468;-93
2022/03/28 10:16:21;;;;;;;19.80;15.17;;;;;;;;;;5072732;28;20454;-91
2022/03/28 10:18:50;;;;;;;18.23;14.93;;;;;;;;;;5074936;28;20441;-92
2022/03/28 10:21:20;;;;;;;18.67;13.90;;;23.50;45.40;;;;;;5080689;28;20516;-93
2022/03/28 10:23:55;;;;;;;16.00;13.10;;;23.50;45.40;;;;;;5094591;28;20448;-92
2022/03/28 10:26:29;;;;;;;15.83;12.20;;;23.20;42.20;;;;;;5093701;28;20459;-92
2022/03/28 10:29:07;;;;;;;16.93;12.37;;;22.90;40.40;;;;;;5069862;28;20469;-88
2022/03/28 10:31:34;;;;;;;15.23;11.17;;;;;;;;;;5071011;28;21011;-95
2022/03/28 10:34:04;;;;;;;18.50;12.60;;;22.70;39.50;;;;;;5102205;28;20519;-91
2022/03/28 10:36:32;;;;;;;13.70;11.23;;;23.20;40.00;;;;;;5093335;28;20452;-94
2022/03/28 10:39:31;;;;;;;14.93;11.73;;;23.60;40.20;;;;;;5075214;28;20508;-93
2022/03/28 10:42:08;;;;;;;15.30;11.83;;;24.30;41.00;;;;;;5071077;28;20497;-92
2022/03/28 10:44:44;;;;;;;14.63;12.93;;;23.20;37.80;;;;;;5077479;28;20468;-91
2022/03/28 10:47:14;;;;;;;14.20;11.77;;;;;;;;;;5072787;28;20445;-91
2022/03/28 10:49:43;;;;;;;12.63;10.80;;;22.90;39.10;;;;;;5077869;28;20544;-92
2022/03/28 10:52:14;;;;;;;17.10;12.93;;;23.10;39.60;;;;;;5082404;28;20521;-89
2022/03/28 10:54:48;;;;;;;13.27;11.97;;;23.20;37.00;;;;;;5099282;28;20452;-94
2022/03/28 10:57:29;;;;;;;14.87;11.97;;;23.20;39.10;;;;;;5102312;28;20540;-92
2022/03/28 11:00:06;;;;;;;17.93;11.97;;;23.80;39.00;;;;;;5092281;28;20476;-91
2022/03/28 11:02:33;;;;;;;17.13;11.60;;;;;;;;;;5097012;28;20575;-92
2022/03/28 11:05:08;;;;;;;12.20;10.73;;;22.60;39.30;;;;;;5098133;28;20456;-91
2022/03/28 11:07:35;;;;;;;12.33;10.93;;;;;;;;;;5095508;28;20448;-89
2022/03/28 11:10:06;;;;;;;16.00;10.90;;;;;;;;;;5096217;28;20455;-91
2022/03/28 11:12:37;;;;;;;14.87;9.90;;;22.30;41.60;;;;;;5099933;28;20444;-91
2022/03/28 11:15:13;;;;;;;17.70;11.13;;;22.40;41.90;;;;;;5098198;28;20460;-90
2022/03/28 11:17:58;;;;;;;11.87;10.57;;;23.40;39.80;;;;;;5131026;22;21046;-92
2022/03/28 11:20:30;;;;;;;14.97;7.67;;;21.70;41.20;;;;;;5144572;27;20487;-91
2022/03/28 11:23:18;;;;;;;16.40;10.80;;;22.40;41.90;;;;;;5073786;27;20447;-90
2022/03/28 11:25:47;;;;;;;19.87;11.23;;;22.20;41.80;;;;;;5142667;27;20478;-91
2022/03/28 11:28:17;;;;;;;17.63;11.80;;;;;;;;;;5142472;27;20445;-89
2022/03/28 11:30:58;;;;;;;16.30;12.37;;;23.00;40.20;;;;;;5140527;27;20797;-91
2022/03/28 11:33:33;;;;;;;16.47;11.40;;;23.50;39.60;;;;;;5136105;27;20508;-89
2022/03/28 11:36:02;;;;;;;14.00;10.63;;;23.50;40.60;;;;;;5134776;27;20446;-88
2022/03/28 11:38:32;;;;;;;15.13;12.50;;;23.50;39.90;;;;;;5135766;27;20538;-90
2022/03/28 11:41:00;;;;;;;15.73;10.43;;;24.40;41.60;;;;;;5137371;27;20573;-92
2022/03/28 11:43:33;;;;;;;15.07;11.50;;;24.30;42.20;;;;;;5136964;27;21070;-90
2022/03/28 11:46:01;;;;;;;13.97;10.60;;;24.00;42.70;;;;;;5137659;27;20443;-89
2022/03/28 11:48:29;;;;;;;15.80;11.30;;;;;;;;;;5139269;27;20443;-89
2022/03/28 11:50:57;;;;;;;17.70;11.67;;;;;;;;;;5139138;27;20447;-94
2022/03/28 11:53:24;;;;;;;17.30;11.03;;;;;;;;;;5140134;27;20471;-90
2022/03/28 11:55:59;;;;;;;26.90;13.20;;;23.80;39.60;;;;;;5141815;27;20948;-95
2022/03/28 11:58:32;;;;;;;11.20;9.27;;;23.10;42.60;;;;;;5137826;27;20450;-92
2022/03/28 12:01:07;;;;;;;68.80;18.30;;;22.70;45.90;;;;;;5148786;27;20467;-94
2022/03/28 12:03:37;;;;;;;14.20;12.40;;;;;;;;;;5138829;27;20461;-94
2022/03/28 12:06:04;;;;;;;23.80;16.43;;;;;;;;;;5136510;27;20472;-94
2022/03/28 12:08:31;;;;;;;17.93;13.30;;;;;;;;;;5142649;27;20450;-92
2022/03/28 12:10:59;;;;;;;22.80;14.80;;;;;;;;;;5138988;27;20438;-92
2022/03/28 12:13:27;;;;;;;22.90;16.20;;;;;;;;;;5137042;27;20466;-93
2022/03/28 12:15:56;;;;;;;18.80;16.23;;;24.30;45.20;;;;;;5137620;27;20450;-90
2022/03/28 12:18:29;;;;;;;23.33;15.47;;;24.00;50.10;;;;;;5128438;27;20481;-91
2022/03/28 12:20:57;;;;;;;24.57;18.17;;;;;;;;;;5137079;27;20427;-92
2022/03/28 12:23:26;;;;;;;22.27;16.50;;;24.70;46.30;;;;;;5136886;27;20439;-91
2022/03/28 12:25:55;;;;;;;27.50;15.07;;;24.70;44.30;;;;;;5136865;27;20451;-91
2022/03/28 12:28:27;;;;;;;34.73;16.70;;;24.40;45.60;;;;;;5136480;27;20488;-92
2022/03/28 12:30:57;;;;;;;21.73;16.80;;;23.80;45.00;;;;;;5132985;27;20450;-92
2022/03/28 12:33:27;;;;;;;20.00;14.37;;;24.50;46.10;;;;;;5134322;27;20538;-92
2022/03/28 12:35:57;;;;;;;23.63;15.87;;;24.30;43.90;;;;;;5133092;27;20451;-91
2022/03/28 12:38:27;;;;;;;20.93;17.33;;;25.00;47.00;;;;;;5136899;27;20439;-92
2022/03/28 12:40:55;;;;;;;21.13;16.00;;;24.80;43.40;;;;;;5136405;27;20446;-92
2022/03/28 12:43:27;;;;;;;26.73;16.20;;;25.20;45.40;;;;;;5135660;27;20533;-91
2022/03/28 12:46:00;;;;;;;21.83;14.80;;;25.10;44.20;;;;;;5136460;27;20451;-91
2022/03/28 12:48:37;;;;;;;22.53;16.57;;;24.80;45.10;;;;;;5136734;27;20423;-91
2022/03/28 12:51:05;;;;;;;20.63;15.20;;;;;;;;;;5133456;27;20870;-92
2022/03/28 12:53:33;;;;;;;22.77;15.10;;;;;;;;;;5136186;27;20451;-89
2022/03/28 12:56:14;;;;;;;19.23;14.80;;;24.50;45.60;;;;;;5136294;27;20431;-90
2022/03/28 12:58:44;;;;;;;21.90;14.97;;;;;;;;;;5135180;27;20443;-91
2022/03/28 13:01:12;;;;;;;28.43;15.73;;;;;;;;;;5135874;27;20510;-91
2022/03/28 13:03:39;;;;;;;22.97;14.10;;;;;;;;;;5136321;27;20451;-91
2022/03/28 13:06:11;;;;;;;22.93;15.40;;;25.00;46.70;;;;;;5136663;27;20447;-91
2022/03/28 13:08:39;;;;;;;22.57;16.70;;;24.80;44.70;;;;;;5139777;27;20439;-91
2022/03/28 13:11:17;;;;;;;26.23;15.97;;;24.00;44.30;;;;;;5144152;22;20476;-93
2022/03/28 13:13:46;;;;;;;19.50;14.27;;;24.60;47.00;;;;;;5136152;27;20522;-93
2022/03/28 13:16:25;;;;;;;25.03;13.87;;;24.40;45.70;;;;;;5136442;27;20443;-92
2022/03/28 13:19:00;;;;;;;19.40;13.63;;;23.90;45.50;;;;;;5136451;27;20938;-93
2022/03/28 13:21:36;;;;;;;18.53;13.03;;;24.00;44.50;;;;;;5132768;27;20470;-91
2022/03/28 13:24:09;;;;;;;18.33;13.87;;;24.10;45.00;;;;;;5136961;27;20805;-93
2022/03/28 13:26:41;;;;;;;16.87;12.47;;;24.80;45.80;;;;;;5132695;27;20477;-93
2022/03/28 13:29:24;;;;;;;14.50;11.17;;;24.50;44.50;;;;;;5135531;27;20435;-91
2022/03/28 13:31:54;;;;;;;19.43;13.80;;;;;;;;;;5136270;27;20424;-93
2022/03/28 13:34:33;;;;;;;18.20;11.97;;;24.30;45.10;;;;;;5135806;27;20519;-92
2022/03/28 13:37:00;;;;;;;16.67;11.80;;;;;;;;;;5132501;27;21090;-92
2022/03/28 13:39:27;;;;;;;16.10;12.17;;;;;;;;;;5135503;27;20503;-93
2022/03/28 13:41:54;;;;;;;17.93;11.40;;;;;;;;;;5135049;27;20474;-94
2022/03/28 13:44:21;;;;;;;15.80;11.73;;;;;;;;;;5134603;27;20446;-94
2022/03/28 13:46:49;;;;;;;14.67;11.53;;;;;;;;;;5130996;27;20454;-94
2022/03/28 13:49:18;;;;;;;14.90;11.13;;;24.10;41.30;;;;;;5134592;27;20447;-94